Time;durP1;ratioP1;P1;durP2;ratioP2;P2;SDS_P1;SDS_P2;PMS_P1;PMS_P2;Temp;Humidity;BMP_temperature;BMP_pressure;BME280_temperature;BME280_humidity;BME280_pressure;Samples;Min_cycle;Max_cycle;Signal;HPM_P1;HPM_P2
2022/11/20 00:01:29;;;;;;;17.80;9.63;;;;;;;3.86;100.00;95713.88;4731783;28;20071;-81
2022/11/20 00:03:57;;;;;;;15.90;11.03;;;;;;;3.92;100.00;95716.78;4738869;29;20044;-81
2022/11/20 00:06:23;;;;;;;16.53;11.83;;;;;;;3.97;100.00;95716.38;4716857;28;20046;-81
2022/11/20 00:08:50;;;;;;;15.60;10.03;;;;;;;3.94;100.00;95717.44;4727700;29;20046;-82
2022/11/20 00:11:18;;;;;;;14.23;9.47;;;;;;;3.88;100.00;95715.38;4760760;29;23375;-82
2022/11/20 00:13:47;;;;;;;13.53;9.17;;;;;;;3.85;100.00;95702.63;4756879;28;20158;-81
2022/11/20 00:16:15;;;;;;;15.83;9.67;;;;;;;3.83;100.00;95709.75;4795975;29;20039;-81
2022/11/20 00:18:42;;;;;;;16.37;9.30;;;;;;;3.81;100.00;95711.63;4801163;28;20035;-82
2022/11/20 00:21:14;;;;;;;16.87;10.53;;;;;;;3.83;100.00;95716.72;4815218;29;20717;-81
2022/11/20 00:23:41;;;;;;;15.80;10.43;;;;;;;3.86;100.00;95716.47;4814374;28;20115;-81
2022/11/20 00:26:09;;;;;;;15.17;11.67;;;;;;;3.88;100.00;95712.75;4844483;29;20223;-81
2022/11/20 00:28:35;;;;;;;16.37;11.63;;;;;;;3.90;100.00;95710.88;4902573;28;20034;-82
2022/11/20 00:31:06;;;;;;;17.67;11.00;;;;;;;3.93;100.00;95709.78;4885916;29;20713;-81
2022/11/20 00:33:32;;;;;;;16.83;12.27;;;;;;;3.90;100.00;95723.88;4891944;28;20074;-82
2022/11/20 00:36:09;;;;;;;15.27;11.07;;;;;;;3.94;100.00;95722.66;4933909;29;20035;-81
2022/11/20 00:38:35;;;;;;;15.53;10.57;;;;;;;3.94;100.00;95712.25;4919535;28;20035;-81
2022/11/20 00:41:07;;;;;;;17.20;11.37;;;;;;;3.98;100.00;95710.19;4932405;29;20054;-82
2022/11/20 00:43:38;;;;;;;16.27;10.63;;;;;;;3.99;100.00;95715.28;4917824;29;20035;-81
2022/11/20 00:46:07;;;;;;;14.00;10.17;;;;;;;3.98;100.00;95718.81;4930938;29;20031;-81
2022/11/20 00:48:33;;;;;;;14.13;9.33;;;;;;;3.93;100.00;95718.41;4933427;29;20047;-81
2022/11/20 00:50:59;;;;;;;13.87;8.97;;;;;;;3.92;100.00;95719.38;4933699;29;20027;-81
2022/11/20 00:53:25;;;;;;;14.90;10.23;;;;;;;3.94;100.00;95732.22;4916643;29;20094;-81
2022/11/20 00:55:58;;;;;;;13.67;9.90;;;;;;;3.92;100.00;95721.97;4933661;28;20733;-81
2022/11/20 00:58:28;;;;;;;14.20;10.02;;;;;;;3.95;100.00;95729.50;4933692;29;20042;-81
2022/11/20 01:01:00;;;;;;;13.47;9.57;;;;;;;3.95;100.00;95732.09;4917423;29;20039;-81
2022/11/20 01:03:26;;;;;;;15.97;10.70;;;;;;;3.91;100.00;95728.09;4918441;29;20030;-82
2022/11/20 01:06:00;;;;;;;13.27;9.60;;;;;;;3.93;100.00;95726.22;4933463;29;20042;-82
2022/11/20 01:08:30;;;;;;;13.50;9.20;;;;;;;3.93;100.00;95717.59;4928344;28;20034;-81
2022/11/20 01:11:09;;;;;;;17.70;11.80;;;;;;;3.85;100.00;95718.22;4896784;29;20047;-81
2022/11/20 01:13:38;;;;;;;13.47;10.03;;;;;;;3.83;100.00;95721.94;4898095;28;20114;-82
2022/11/20 01:16:10;;;;;;;14.63;8.87;;;;;;;3.85;100.00;95723.41;4898828;29;20043;-82
2022/11/20 01:18:38;;;;;;;13.10;8.67;;;;;;;3.85;100.00;95727.81;4900402;28;20067;-81
2022/11/20 01:21:13;;;;;;;14.00;8.90;;;;;;;3.85;100.00;95727.81;4900347;29;20066;-82
2022/11/20 01:23:40;;;;;;;12.73;9.03;;;;;;;3.80;100.00;95728.22;4905982;28;21404;-81
2022/11/20 01:26:09;;;;;;;14.00;7.83;;;;;;;3.83;100.00;95733.16;4928468;28;20039;-82
2022/11/20 01:28:35;;;;;;;11.83;8.30;;;;;;;3.89;100.00;95737.84;4898202;28;20126;-81
2022/11/20 01:31:09;;;;;;;12.23;7.30;;;;;;;3.87;100.00;95736.31;4882850;29;20065;-81
2022/11/20 01:33:35;;;;;;;10.80;7.13;;;;;;;3.84;100.00;95734.78;4913229;28;20036;-81
2022/11/20 01:36:05;;;;;;;11.40;7.53;;;;;;;3.90;100.00;95733.47;4880854;29;20047;-81
2022/11/20 01:38:45;;;;;;;13.57;8.33;;;;;;;3.89;100.00;95743.03;4885559;28;20134;-81
2022/11/20 01:43:20;;;;;;;11.97;7.60;;;;;;;3.86;100.00;95740.69;4916570;28;20059;-82
2022/11/20 01:44:01;;;;;;;15.07;7.83;;;;;;;3.86;100.00;95737.28;4910093;28;20035;-83
2022/11/20 01:46:31;;;;;;;11.10;7.43;;;;;;;3.86;100.00;95742.47;4894479;28;20086;-82
2022/11/20 01:49:07;;;;;;;10.73;7.00;;;;;;;3.87;100.00;95737.13;4898248;29;20266;-81
2022/11/20 01:51:42;;;;;;;10.97;7.70;;;;;;;3.86;100.00;95743.28;4896316;28;20043;-81
2022/11/20 01:54:16;;;;;;;11.63;7.27;;;;;;;3.84;100.00;95732.19;4893547;29;20044;-81
2022/11/20 01:56:45;;;;;;;9.83;6.97;;;;;;;3.86;100.00;95735.50;4896861;28;20553;-82
2022/11/20 01:59:15;;;;;;;12.60;6.80;;;;;;;3.85;100.00;95730.41;4885766;29;20370;-82
2022/11/20 02:01:40;;;;;;;11.00;6.80;;;;;;;3.80;100.00;95735.19;4894134;28;20199;-80
2022/11/20 02:04:11;;;;;;;11.37;6.80;;;;;;;3.81;100.00;95729.84;4895552;29;20175;-81
2022/11/20 02:06:48;;;;;;;9.17;5.83;;;;;;;3.77;100.00;95729.28;4913426;28;20050;-81
2022/11/20 02:09:16;;;;;;;10.83;6.20;;;;;;;3.74;100.00;95729.53;4898854;29;20070;-82
2022/11/20 02:11:42;;;;;;;10.63;7.07;;;;;;;3.80;100.00;95724.78;4930852;28;20124;-82
2022/11/20 02:14:22;;;;;;;9.97;6.53;;;;;;;3.79;100.00;95729.16;4949722;28;20563;-82
2022/11/20 02:16:49;;;;;;;12.00;6.77;;;;;;;3.78;100.00;95725.72;4930897;28;20406;-82
2022/11/20 02:19:24;;;;;;;13.17;6.70;;;;;;;3.80;100.00;95730.81;4931804;29;20081;-82
2022/11/20 02:22:03;;;;;;;12.83;6.90;;;;;;;3.78;100.00;95737.91;4914371;29;20028;-82
2022/11/20 02:24:29;;;;;;;11.30;7.50;;;;;;;3.76;100.00;95740.66;4935675;28;20069;-81
2022/11/20 02:27:02;;;;;;;9.67;6.57;;;;;;;3.74;100.00;95737.34;4954219;28;20060;-82
2022/11/20 02:29:39;;;;;;;10.35;6.30;;;;;;;3.75;100.00;95738.16;4937094;29;20031;-81
2022/11/20 02:32:05;;;;;;;12.30;6.60;;;;;;;3.71;100.00;95737.59;4917681;29;20550;-81
2022/11/20 02:34:31;;;;;;;10.27;6.80;;;;;;;3.76;100.00;95742.44;4920043;29;20122;-82
2022/11/20 02:36:59;;;;;;;11.60;6.77;;;;;;;3.69;100.00;95739.53;4920994;29;20039;-82
2022/11/20 02:39:27;;;;;;;11.00;6.90;;;;;;;3.74;100.00;95747.75;4935448;29;20042;-82
2022/11/20 02:41:55;;;;;;;11.97;6.67;;;;;;;3.68;100.00;95732.66;4896457;29;20023;-82
2022/11/20 02:44:21;;;;;;;10.13;7.33;;;;;;;3.65;100.00;95732.09;4914768;28;20038;-81
2022/11/20 02:46:47;;;;;;;10.27;6.33;;;;;;;3.59;100.00;95730.00;4897403;28;20134;-81
2022/11/20 02:49:13;;;;;;;11.70;6.73;;;;;;;3.53;100.00;95726.16;4898307;28;20578;-81
2022/11/20 02:51:38;;;;;;;11.03;5.27;;;;;;;3.56;100.00;95722.47;4895357;28;20146;-81
2022/11/20 02:54:04;;;;;;;13.53;6.70;;;;;;;3.55;100.00;95721.63;4888439;29;20046;-82
2022/11/20 02:56:39;;;;;;;11.03;6.47;;;;;;;3.52;100.00;95721.88;4900061;28;20122;-81
2022/11/20 02:59:04;;;;;;;11.77;5.60;;;;;;;3.56;100.00;95717.28;4898967;29;20382;-81
2022/11/20 03:01:30;;;;;;;11.00;5.97;;;;;;;3.52;100.00;95722.72;4881689;28;20035;-81
2022/11/20 03:03:56;;;;;;;7.53;5.17;;;;;;;3.56;100.00;95727.69;4901844;29;21222;-81
2022/11/20 03:06:23;;;;;;;9.20;5.53;;;;;;;3.58;100.00;95725.75;4901695;29;20520;-81
2022/11/20 03:08:48;;;;;;;8.17;5.17;;;;;;;3.57;100.00;95726.72;4893216;28;20051;-81
2022/11/20 03:11:19;;;;;;;8.53;5.67;;;;;;;3.56;100.00;95727.69;4899327;29;20039;-81
2022/11/20 03:13:45;;;;;;;10.77;5.93;;;;;;;3.54;100.00;95720.81;4922552;28;20708;-79
2022/11/20 03:16:15;;;;;;;8.63;5.63;;;;;;;3.49;100.00;95723.00;4897370;29;20043;-82
2022/11/20 03:18:41;;;;;;;10.60;5.73;;;;;;;3.51;100.00;95721.06;4897830;28;20513;-81
2022/11/20 03:21:11;;;;;;;8.27;5.17;;;;;;;3.51;100.00;95721.06;4899509;29;20035;-81
2022/11/20 03:23:38;;;;;;;8.17;4.83;;;;;;;3.56;100.00;95730.28;4883536;28;20046;-81
2022/11/20 03:26:22;;;;;;;9.97;5.17;;;;;;;3.52;100.00;95719.28;4899888;29;20110;-82
2022/11/20 03:28:51;;;;;;;9.40;5.03;;;;;;;3.57;100.00;95724.13;4896045;29;20051;-80
2022/11/20 03:31:23;;;;;;;8.07;4.47;;;;;;;3.54;100.00;95723.41;4917601;28;20501;-81
2022/11/20 03:33:49;;;;;;;8.07;4.77;;;;;;;3.51;100.00;95726.25;4897416;28;20031;-82
2022/11/20 03:36:27;;;;;;;9.93;5.53;;;;;;;3.52;100.00;95727.09;4903384;29;20042;-82
2022/11/20 03:38:55;;;;;;;8.90;5.70;;;;;;;3.51;100.00;95728.06;4903283;29;20098;-81
2022/11/20 03:41:25;;;;;;;8.93;5.23;;;;;;;3.50;100.00;95732.44;4913813;29;20039;-82
2022/11/20 03:44:00;;;;;;;10.27;5.40;;;;;;;3.53;100.00;95728.75;4917942;28;20035;-81
2022/11/20 03:46:27;;;;;;;7.80;5.00;;;;;;;3.56;100.00;95731.09;4954477;28;20051;-81
2022/11/20 03:48:53;;;;;;;9.23;5.30;;;;;;;3.56;100.00;95727.69;4922123;29;20421;-82
2022/11/20 03:51:22;;;;;;;9.90;5.80;;;;;;;3.55;100.00;95721.63;4936328;29;20023;-82
2022/11/20 03:53:50;;;;;;;9.17;5.47;;;;;;;3.51;100.00;95726.25;4922037;28;20035;-81
2022/11/20 03:56:18;;;;;;;10.73;5.60;;;;;;;3.54;100.00;95717.41;4950400;28;20035;-82
2022/11/20 03:58:45;;;;;;;10.50;5.30;;;;;;;3.50;100.00;95719.44;4898863;28;20031;-81
2022/11/20 04:01:19;;;;;;;8.50;5.40;;;;;;;3.48;100.00;95716.13;4883447;29;20121;-81
2022/11/20 04:03:49;;;;;;;9.73;5.70;;;;;;;3.47;100.00;95718.88;4899122;28;20040;-81
2022/11/20 04:06:21;;;;;;;9.73;5.60;;;;;;;3.46;100.00;95718.03;4898289;29;21253;-81
2022/11/20 04:08:47;;;;;;;8.17;4.97;;;;;;;3.49;100.00;95723.00;4897240;28;20112;-82
2022/11/20 04:11:31;;;;;;;10.00;5.57;;;;;;;3.48;100.00;95723.09;4894542;29;20179;-82
2022/11/20 04:13:59;;;;;;;9.57;5.82;;;;;;;3.49;100.00;95725.59;4897522;29;20058;-82
2022/11/20 04:16:29;;;;;;;9.53;5.80;;;;;;;3.40;100.00;95728.94;4898456;29;20047;-81
2022/11/20 04:18:57;;;;;;;9.43;5.70;;;;;;;3.38;100.00;95722.22;4897616;29;20719;-81
2022/11/20 04:21:26;;;;;;;10.23;6.03;;;;;;;3.36;100.00;95724.16;4898341;29;20263;-82
2022/11/20 04:23:53;;;;;;;8.87;5.50;;;;;;;3.40;100.00;95722.94;4895886;29;20042;-81
2022/11/20 04:26:20;;;;;;;9.63;6.10;;;;;;;3.38;100.00;95719.63;4897287;29;20141;-81
2022/11/20 04:28:46;;;;;;;9.57;6.20;;;;;;;3.34;100.00;95707.84;4922242;28;20043;-82
2022/11/20 04:31:19;;;;;;;9.63;5.63;;;;;;;3.35;100.00;95715.50;4918329;29;20038;-81
2022/11/20 04:33:45;;;;;;;8.80;5.20;;;;;;;3.36;100.00;95706.78;4933608;29;20497;-82
2022/11/20 04:36:23;;;;;;;8.97;4.70;;;;;;;3.31;100.00;95711.50;4919590;29;20031;-81
2022/11/20 04:38:56;;;;;;;7.80;4.83;;;;;;;3.33;100.00;95714.00;4949586;29;20035;-81
2022/11/20 04:41:24;;;;;;;8.93;3.72;;;;;;;3.35;100.00;95699.91;4903802;29;21743;-81
2022/11/20 04:44:04;;;;;;;9.30;5.17;;;;;;;3.34;100.00;95700.88;4878897;28;20126;-81
2022/11/20 04:46:36;;;;;;;9.83;4.53;;;;;;;3.28;100.00;95694.41;4914786;28;20063;-81
2022/11/20 04:49:02;;;;;;;8.70;4.63;;;;;;;3.32;100.00;95702.78;4881974;29;20043;-81
2022/11/20 04:51:28;;;;;;;8.53;4.23;;;;;;;3.33;100.00;95696.63;4900089;28;20067;-81
2022/11/20 04:53:54;;;;;;;7.77;4.53;;;;;;;3.34;100.00;95698.25;4922118;28;20481;-81
2022/11/20 04:56:20;;;;;;;9.83;4.83;;;;;;;3.35;100.00;95705.09;4908728;29;20046;-80
2022/11/20 04:58:46;;;;;;;9.30;4.20;;;;;;;3.35;100.00;95707.69;4907690;28;20039;-80
2022/11/20 05:01:17;;;;;;;7.40;3.90;;;;;;;3.36;100.00;95698.97;4903167;29;20038;-82
2022/11/20 05:03:44;;;;;;;9.83;4.60;;;;;;;3.30;100.00;95691.69;4902723;28;20036;-81
2022/11/20 05:06:19;;;;;;;7.37;4.10;;;;;;;3.32;100.00;95695.00;4906290;29;20035;-81
2022/11/20 05:08:44;;;;;;;8.23;4.87;;;;;;;3.34;100.00;95698.25;4895959;28;20035;-81
2022/11/20 05:11:14;;;;;;;8.27;4.60;;;;;;;3.38;100.00;95693.63;4902231;29;20808;-82
2022/11/20 05:13:40;;;;;;;12.03;4.60;;;;;;;3.37;100.00;95700.59;4934310;29;20031;-81
2022/11/20 05:16:12;;;;;;;10.40;5.40;;;;;;;3.39;100.00;95701.31;4934781;29;20117;-81
2022/11/20 05:18:39;;;;;;;7.23;4.43;;;;;;;3.37;100.00;95697.19;4950291;28;20045;-81
2022/11/20 05:21:05;;;;;;;6.67;3.67;;;;;;;3.35;100.00;95689.50;4930326;29;20032;-82
2022/11/20 05:23:32;;;;;;;8.13;4.30;;;;;;;3.35;100.00;95694.69;4920915;28;20011;-82
2022/11/20 05:25:58;;;;;;;6.87;3.60;;;;;;;3.33;100.00;95701.00;4918557;28;20964;-81
2022/11/20 05:28:25;;;;;;;7.03;4.13;;;;;;;3.30;100.00;95705.50;4933146;29;21314;-82
2022/11/20 05:30:51;;;;;;;9.03;4.17;;;;;;;3.35;100.00;95710.28;4933591;29;20029;-82
2022/11/20 05:33:20;;;;;;;6.70;4.03;;;;;;;3.34;100.00;95705.25;4908878;29;20031;-81
2022/11/20 05:35:46;;;;;;;8.70;4.13;;;;;;;3.33;100.00;95701.81;4934686;29;20130;-82
2022/11/20 05:38:14;;;;;;;7.80;4.20;;;;;;;3.33;100.00;95701.81;4919190;29;20130;-82
2022/11/20 05:40:40;;;;;;;7.60;4.30;;;;;;;3.34;100.00;95695.66;4918042;28;20031;-82
2022/11/20 05:43:06;;;;;;;7.40;4.50;;;;;;;3.39;100.00;95705.69;4918465;29;20102;-81
2022/11/20 05:45:31;;;;;;;8.67;4.30;;;;;;;3.35;100.00;95709.47;4936435;28;20035;-82
2022/11/20 05:48:01;;;;;;;6.83;3.60;;;;;;;3.40;100.00;95700.34;4936180;29;20765;-81
2022/11/20 05:50:29;;;;;;;7.57;4.23;;;;;;;3.45;100.00;95698.19;4948746;29;21393;-82
2022/11/20 05:53:00;;;;;;;6.50;4.03;;;;;;;3.43;100.00;95705.31;4933103;29;20039;-82
2022/11/20 05:55:26;;;;;;;9.60;4.03;;;;;;;3.40;100.00;95702.97;4929688;29;20142;-82
2022/11/20 05:57:56;;;;;;;6.63;3.90;;;;;;;3.45;100.00;95699.97;4932966;28;20717;-82
2022/11/20 06:00:22;;;;;;;22.63;4.33;;;;;;;3.46;100.00;95697.25;4919675;29;20121;-81
2022/11/20 06:02:48;;;;;;;7.50;3.80;;;;;;;3.44;100.00;95701.75;4937566;29;20437;-81
2022/11/20 06:05:15;;;;;;;9.13;4.33;;;;;;;3.45;100.00;95705.16;4937598;29;20042;-82
2022/11/20 06:07:41;;;;;;;7.37;4.27;;;;;;;3.38;100.00;95699.66;4953224;29;20130;-82
2022/11/20 06:10:07;;;;;;;12.03;4.23;;;;;;;3.45;100.00;95699.97;4937353;29;20122;-81
2022/11/20 06:12:33;;;;;;;8.97;3.67;;;;;;;3.48;100.00;95703.13;4938088;28;20051;-81
2022/11/20 06:14:59;;;;;;;6.93;3.70;;;;;;;3.47;100.00;95701.50;4923503;29;20031;-82
2022/11/20 06:17:27;;;;;;;9.50;4.77;;;;;;;3.49;100.00;95698.78;4924645;29;20041;-81
2022/11/20 06:19:53;;;;;;;6.67;3.10;;;;;;;3.43;100.00;95689.72;4936826;29;20031;-81
2022/11/20 06:22:18;;;;;;;7.83;4.10;;;;;;;3.50;100.00;95692.63;4937459;28;20035;-82
2022/11/20 06:24:44;;;;;;;6.67;3.80;;;;;;;3.50;100.00;95682.22;4921531;28;20027;-82
2022/11/20 06:27:09;;;;;;;8.77;3.33;;;;;;;3.53;100.00;95687.97;4923444;29;20023;-82
2022/11/20 06:29:36;;;;;;;6.30;3.80;;;;;;;3.48;100.00;95703.13;4937324;29;20042;-82
2022/11/20 06:32:14;;;;;;;6.23;3.37;;;;;;;3.45;100.00;95700.78;4936290;29;20042;-82
2022/11/20 06:34:40;;;;;;;5.80;3.20;;;;;;;3.46;100.00;95702.44;4937708;29;20051;-82
2022/11/20 06:37:18;;;;;;;6.33;3.43;;;;;;;3.49;100.00;95699.59;4921741;29;20047;-81
2022/11/20 06:39:44;;;;;;;7.47;4.10;;;;;;;3.54;100.00;95704.41;4935576;29;20046;-82
2022/11/20 06:42:09;;;;;;;6.23;3.50;;;;;;;3.56;100.00;95712.09;4905794;29;20027;-82
2022/11/20 06:44:35;;;;;;;6.10;3.50;;;;;;;3.50;100.00;95703.84;4932083;28;20035;-82
2022/11/20 06:47:01;;;;;;;6.20;3.40;;;;;;;3.48;100.00;95705.72;4899936;29;20035;-81
2022/11/20 06:49:26;;;;;;;6.70;3.53;;;;;;;3.56;100.00;95707.69;4889758;28;20496;-81
2022/11/20 06:51:53;;;;;;;6.10;2.87;;;;;;;3.55;100.00;95700.84;4880054;29;20031;-81
2022/11/20 06:54:20;;;;;;;5.87;3.43;;;;;;;3.56;100.00;95704.28;4897045;29;20501;-81
2022/11/20 06:56:49;;;;;;;7.30;4.17;;;;;;;3.58;100.00;95708.38;4902865;28;20035;-81
2022/11/20 06:59:15;;;;;;;9.10;3.83;;;;;;;3.59;100.00;95709.19;4914933;28;20450;-82
2022/11/20 07:01:41;;;;;;;9.90;4.50;;;;;;;3.59;100.00;95707.44;4886141;28;20068;-82
2022/11/20 07:04:07;;;;;;;6.47;3.63;;;;;;;3.48;100.00;95705.72;4887155;29;20042;-81
2022/11/20 07:06:32;;;;;;;6.73;3.67;;;;;;;3.52;100.00;95712.34;4899099;28;20019;-82
2022/11/20 07:09:01;;;;;;;6.90;3.77;;;;;;;3.48;100.00;95713.53;4898432;29;20608;-82
2022/11/20 07:11:29;;;;;;;6.10;3.60;;;;;;;3.54;100.00;95713.00;4925296;28;20047;-82
2022/11/20 07:13:54;;;;;;;6.87;3.70;;;;;;;3.53;100.00;95713.16;4935229;29;20060;-82
2022/11/20 07:16:20;;;;;;;6.97;4.10;;;;;;;3.58;100.00;95720.56;4936637;29;20031;-80
2022/11/20 07:18:46;;;;;;;6.03;3.43;;;;;;;3.51;100.00;95718.47;4922277;28;20097;-82
2022/11/20 07:21:14;;;;;;;7.03;3.30;;;;;;;3.60;100.00;95726.47;4937261;29;20039;-82
2022/11/20 07:23:45;;;;;;;7.87;3.47;;;;;;;3.63;100.00;95726.22;4919520;28;20038;-82
2022/11/20 07:26:12;;;;;;;5.87;3.37;;;;;;;3.72;100.00;95720.22;4936333;29;20086;-82
2022/11/20 07:28:39;;;;;;;7.23;3.63;;;;;;;3.73;100.00;95725.31;4938038;28;20114;-82
2022/11/20 07:31:11;;;;;;;8.33;3.07;;;;;;;3.79;100.00;95721.38;4919539;29;20059;-82
2022/11/20 07:33:37;;;;;;;4.33;2.47;;;;;;;3.78;100.00;95727.50;4935706;28;20087;-81
2022/11/20 07:36:04;;;;;;;5.97;3.03;;;;;;;3.80;100.00;95715.19;4936662;29;20039;-82
2022/11/20 07:38:33;;;;;;;5.00;2.63;;;;;;;3.81;100.00;95722.03;4937702;28;20042;-82
2022/11/20 07:41:03;;;;;;;6.77;3.27;;;;;;;3.79;100.00;95716.16;4917506;28;20691;-80
2022/11/20 07:43:28;;;;;;;5.23;2.87;;;;;;;3.81;100.00;95716.84;4899400;28;20043;-81
2022/11/20 07:45:58;;;;;;;6.00;2.73;;;;;;;3.89;100.00;95719.63;4897592;29;20035;-82
2022/11/20 07:48:25;;;;;;;5.47;2.80;;;;;;;3.93;100.00;95715.81;4885689;29;20489;-83
2022/11/20 07:50:58;;;;;;;6.00;3.10;;;;;;;3.91;100.00;95709.91;4886968;28;20066;-82
2022/11/20 07:53:25;;;;;;;8.88;3.00;;;;;;;3.98;100.00;95712.81;4883489;29;20502;-83
2022/11/20 07:56:02;;;;;;;5.33;2.83;;;;;;;3.99;100.00;95711.84;4885832;28;21081;-83
2022/11/20 07:58:32;;;;;;;5.43;2.30;;;;;;;4.05;100.00;95711.31;4897217;28;22044;-82
2022/11/20 08:01:04;;;;;;;3.70;2.23;;;;;;;4.01;100.00;95720.34;4898411;29;20042;-83
2022/11/20 08:03:37;;;;;;;4.10;2.17;;;;;;;4.08;100.00;95707.63;4899866;28;20071;-82
2022/11/20 08:06:03;;;;;;;3.72;2.08;;;;;;;3.99;100.00;95707.47;4896969;29;20031;-83
2022/11/20 08:08:29;;;;;;;6.70;3.30;;;;;;;4.09;100.00;95710.13;4885737;28;20089;-83
2022/11/20 08:16:47;;;;;;;4.27;2.10;;;;;;;4.31;100.00;95718.66;4935477;28;20042;-84
2022/11/20 08:19:14;;;;;;;4.55;2.70;;;;;;;4.30;100.00;95717.84;4933955;29;20038;-84
2022/11/20 08:21:41;;;;;;;4.97;2.70;;;;;;;4.26;100.00;95724.28;4933033;29;20054;-84
2022/11/20 08:24:07;;;;;;;5.30;2.77;;;;;;;4.24;100.00;95720.97;4919062;29;20030;-86
2022/11/20 08:26:34;;;;;;;4.10;2.30;;;;;;;4.23;100.00;95714.94;4921943;28;20066;-85
2022/11/20 08:29:00;;;;;;;5.37;2.57;;;;;;;4.30;100.00;95717.84;4954286;28;20023;-84
2022/11/20 08:31:27;;;;;;;6.23;2.40;;;;;;;4.41;100.00;95715.13;4938809;29;20027;-86
2022/11/20 08:34:01;;;;;;;4.23;2.50;;;;;;;4.44;100.00;95725.25;4947748;28;20841;-84
2022/11/20 08:36:34;;;;;;;3.30;1.63;;;;;;;4.45;100.00;95723.47;4952068;28;20490;-83
2022/11/20 08:39:00;;;;;;;4.23;2.30;;;;;;;4.52;100.00;95719.38;4933079;29;20038;-84
2022/11/20 08:41:30;;;;;;;4.80;2.10;;;;;;;4.41;100.00;95724.72;4905031;29;20039;-83
2022/11/20 08:44:01;;;;;;;3.67;2.07;;;;;;;4.33;100.00;95738.41;4895765;29;20647;-91
2022/11/20 08:46:37;;;;;;;5.57;2.00;;;;;;;4.30;100.00;95738.66;4894065;28;20070;-83
2022/11/20 08:49:05;;;;;;;5.13;2.20;;;;;;;4.29;100.00;95742.19;4908768;28;20075;-83
2022/11/20 08:51:32;;;;;;;4.60;2.43;;;;;;;4.21;100.00;95745.47;4881146;28;20042;-83
2022/11/20 08:53:57;;;;;;;4.90;2.27;;;;;;;4.23;100.00;95742.75;4895272;29;20138;-83
2022/11/20 08:56:28;;;;;;;6.70;2.30;;;;;;;4.19;100.00;95750.00;4913876;29;20039;-83
2022/11/20 08:58:54;;;;;;;8.87;3.00;;;;;;;4.17;100.00;95751.09;4898504;29;20090;-82
2022/11/20 09:01:22;;;;;;;7.57;2.33;;;;;;;4.09;100.00;95751.75;4895514;29;20146;-83
2022/11/20 09:03:50;;;;;;;5.33;2.70;;;;;;;4.11;100.00;95751.59;4915615;28;20549;-83
2022/11/20 09:06:16;;;;;;;5.60;2.50;;;;;;;4.07;100.00;95747.63;4890301;29;20170;-83
2022/11/20 09:08:54;;;;;;;4.97;2.33;;;;;;;4.03;100.00;95746.25;4883642;28;21350;-83
2022/11/20 09:11:23;;;;;;;6.30;3.13;;;;;;;4.07;100.00;95748.44;4917166;29;20035;-83
2022/11/20 09:13:49;;;;;;;5.07;2.50;;;;;;;4.12;100.00;95745.44;4919623;28;20035;-83
2022/11/20 09:16:15;;;;;;;5.73;3.17;;;;;;;4.03;100.00;95752.28;4918935;29;20541;-83
2022/11/20 09:18:41;;;;;;;6.80;3.83;;;;;;;4.09;100.00;95756.97;4934681;29;20039;-83
2022/11/20 09:21:12;;;;;;;5.83;3.13;;;;;;;4.13;100.00;95752.31;4934334;29;20039;-83
2022/11/20 09:23:41;;;;;;;5.37;3.00;;;;;;;4.18;100.00;95755.31;4930863;28;20078;-83
2022/11/20 09:26:12;;;;;;;6.03;3.03;;;;;;;4.18;100.00;95750.13;4932371;29;20031;-83
2022/11/20 09:28:42;;;;;;;4.83;2.60;;;;;;;4.27;100.00;95748.53;4919658;28;20086;-83
2022/11/20 09:31:22;;;;;;;4.67;2.60;;;;;;;4.27;100.00;95751.13;4929363;29;20045;-82
2022/11/20 09:33:58;;;;;;;5.47;3.23;;;;;;;4.27;100.00;95758.94;4933523;28;20027;-83
2022/11/20 09:36:28;;;;;;;6.53;3.67;;;;;;;4.26;100.00;95752.91;4916519;28;20043;-83
2022/11/20 09:38:59;;;;;;;6.53;2.73;;;;;;;4.22;100.00;95748.91;4933072;29;20436;-83
2022/11/20 09:42:05;;;;;;;3.93;2.40;;;;;;;4.16;100.00;95754.66;4933691;29;20116;-83
2022/11/20 09:45:00;;;;;;;5.83;2.87;;;;;;;4.20;100.00;95759.44;4931558;28;20134;-83
2022/11/20 09:47:50;;;;;;;7.60;3.80;;;;;;;4.20;100.00;95759.44;4882873;29;20054;-83
2022/11/20 09:50:41;;;;;;;5.87;3.10;;;;;;;4.14;100.00;95759.16;4932464;29;20035;-84
2022/11/20 09:53:18;;;;;;;5.53;3.20;;;;;;;4.14;100.00;95761.75;4948659;29;20037;-83
2022/11/20 09:55:46;;;;;;;5.07;2.90;;;;;;;4.14;100.00;95766.97;4935001;28;20125;-83
2022/11/20 09:58:42;;;;;;;5.00;2.63;;;;;;;4.19;100.00;95769.97;4918821;29;20031;-83
2022/11/20 10:01:19;;;;;;;4.63;2.40;;;;;;;4.18;100.00;95765.75;4912873;29;20078;-83
2022/11/20 10:03:59;;;;;;;5.20;2.50;;;;;;;4.15;100.00;95768.59;4873945;28;20043;-82
2022/11/20 10:06:51;;;;;;;5.33;2.20;;;;;;;4.11;100.00;95780.22;4882512;29;20146;-82
2022/11/20 10:09:28;;;;;;;6.20;3.43;;;;;;;4.10;100.00;95776.00;4854211;29;20109;-83
2022/11/20 10:12:18;;;;;;;9.37;3.43;;;;;;;4.05;100.00;95778.16;4861641;29;20023;-83
2022/11/20 10:15:21;;;;;;;12.33;2.83;;;;;;;4.05;100.00;95778.16;4835304;29;20095;-83
2022/11/20 10:17:58;;;;;;;6.67;3.70;;;;;;;3.98;100.00;95780.44;4809179;28;20043;-83
2022/11/20 10:20:38;;;;;;;5.70;2.93;;;;;;;3.98;100.00;95786.47;4807016;28;20039;-84
2022/11/20 10:23:23;;;;;;;5.30;2.70;;;;;;;3.93;100.00;95778.25;4788012;29;20054;-86
2022/11/20 10:26:17;;;;;;;5.17;3.07;;;;;;;3.99;100.00;95776.88;4788535;28;20037;-83
2022/11/20 10:28:49;;;;;;;5.23;3.10;;;;;;;4.01;100.00;95781.00;4735614;28;20071;-82
2022/11/20 10:31:28;;;;;;;6.27;3.80;;;;;;;4.00;100.00;95789.78;4788104;28;20035;-83
2022/11/20 10:33:59;;;;;;;6.77;4.30;;;;;;;4.06;100.00;95792.78;4795454;29;20135;-82
2022/11/20 10:36:33;;;;;;;9.57;5.10;;;;;;;4.00;100.00;95794.16;4769105;29;20043;-83
2022/11/20 10:39:22;;;;;;;5.57;3.30;;;;;;;4.06;100.00;95791.03;4775709;29;21078;-83
2022/11/20 10:41:54;;;;;;;6.47;2.87;;;;;;;4.03;100.00;95782.69;4806916;28;20066;-84
2022/11/20 10:47:16;;;;;;;5.77;3.20;;;;;;;4.03;100.00;95787.88;4823472;29;21813;-83
2022/11/20 10:49:48;;;;;;;5.13;2.40;;;;;;;4.06;100.00;95769.38;4826418;28;20040;-83
2022/11/20 10:52:27;;;;;;;4.50;2.93;;;;;;;4.15;100.00;95777.22;4857862;28;20032;-83
2022/11/20 10:55:06;;;;;;;6.67;3.43;;;;;;;4.13;100.00;95770.53;4851855;28;20035;-83
2022/11/20 10:58:01;;;;;;;5.50;2.87;;;;;;;4.18;100.00;95760.53;4849101;28;20039;-83
2022/11/20 11:00:31;;;;;;;5.53;3.27;;;;;;;4.21;100.00;95766.28;4853938;29;20032;-81
2022/11/20 11:03:07;;;;;;;5.90;3.67;;;;;;;4.24;100.00;95765.22;4887647;28;20035;-81
2022/11/20 11:05:43;;;;;;;4.53;2.90;;;;;;;4.25;100.00;95756.44;4874127;28;20993;-82
2022/11/20 11:08:19;;;;;;;3.30;2.23;;;;;;;4.22;100.00;95762.72;4870548;29;20211;-82
2022/11/20 11:10:57;;;;;;;6.93;3.00;;;;;;;4.21;100.00;95760.28;4876692;28;20063;-83
2022/11/20 11:13:28;;;;;;;16.43;7.97;;;;;;;4.32;100.00;95752.34;4861325;29;20074;-83
2022/11/20 11:15:56;;;;;;;6.03;2.97;;;;;;;4.37;100.00;95749.38;4871487;29;20035;-83
2022/11/20 11:18:31;;;;;;;12.90;5.83;;;;;;;4.41;100.00;95745.53;4874333;29;20043;-82
2022/11/20 11:21:02;;;;;;;5.87;2.77;;;;;;;4.48;100.00;95738.84;4863273;29;20815;-83
2022/11/20 11:23:42;;;;;;;5.80;2.70;;;;;;;4.52;100.00;95748.03;4893133;28;20090;-83
2022/11/20 11:26:23;;;;;;;5.00;2.67;;;;;;;4.61;100.00;95749.81;4901819;29;20031;-82
2022/11/20 11:29:03;;;;;;;7.73;4.20;;;;;;;4.54;100.00;95745.31;4905712;28;20044;-82
2022/11/20 11:31:36;;;;;;;9.17;3.70;;;;;;;4.51;100.00;95758.59;4900892;28;20596;-83
2022/11/20 11:34:14;;;;;;;5.45;3.03;;;;;;;4.47;100.00;95745.00;4929706;29;20035;-84
2022/11/20 11:36:53;;;;;;;5.33;2.67;;;;;;;4.54;100.00;95751.31;4936766;28;20041;-82
2022/11/20 11:39:20;;;;;;;3.67;1.90;;;;;;;4.35;100.00;95746.06;4916735;29;20039;-81
2022/11/20 11:41:47;;;;;;;2.80;1.23;;;;;;;4.40;100.00;95743.91;4930198;28;20039;-81
2022/11/20 11:47:13;;;;;;;8.23;4.27;;;;;;;4.43;100.00;95741.84;4897835;29;20035;-84
2022/11/20 11:49:42;;;;;;;6.47;3.57;;;;;;;4.46;100.00;95731.19;4881404;28;20051;-83
2022/11/20 11:52:22;;;;;;;4.03;2.20;;;;;;;4.56;100.00;95727.75;4878295;28;20067;-84
2022/11/20 11:55:05;;;;;;;10.30;4.97;;;;;;;4.52;100.00;95732.41;4899281;28;20122;-81
2022/11/20 11:57:38;;;;;;;5.17;2.33;;;;;;;4.40;100.00;95734.31;4906111;28;20058;-81